SKSM/SMR METAR and TAF weather

Enter ICAO airport designator
Station Type Date Time Source
SKSM METAR 2020/09/21 20:00 UTC NOAA

SKSM 212000Z 34008KT 9999 FEW017 BKN070 32/25 A2978


Station Type Date Time Source
SKSM Decoded METAR 2020/09/21 20:00 UTC NOAA

Santa Marta / Simon Bolivar, Colombia (SKSM) 11-08N 074-14W 14M
Sep 21, 2020 - 04:00 PM EDT / 2020.09.21 2000 UTC
Wind: from the NNW (340 degrees) at 9 MPH (8 KT):0
Visibility: greater than 7 mile(s):0
Sky conditions: mostly cloudy
Temperature: 89 F (32 C)
Heat index: 100.6 F (38.1 C):1
Dew Point: 77 F (25 C)
Relative Humidity: 66%
Pressure (altimeter): 29.78 in. Hg (1008 hPa)
ob: SKSM 212000Z 34008KT 9999 FEW017 BKN070 32/25 A2978
cycle: 20

Station Type Date Time Source
SKSM TAF UTC NOAA

Error!

Example: see airport list